Pagina principală
METAR-TAF:

METAR-TAF

Aeroporturi :

Cabo San Lucas, Mexic

Latitudine: 22-56-51N, longitudine: 109-56-13W, elevație: 210 m

Observații meteo curente

Raportul a fost făcut în urmă cu 1 oră și 6 de minute, la 15:40 UTC
Vânt 3 kt de la Est/Sud-est
Temperatură 32°C
Umiditate 21%
Presiune 1011 hPa
Vizibilitate: 16.1 km
Nori puțini la o înălțime de 25000 picior

METAR: MMSL 211540Z 12003KT 10SM FEW250 32/07 A2985 RMK 8/008

Ora: 09:46 (16:46 UTC)

Prognoză

Raportul a fost făcut în urmă cu 11 ore și 45 de minute, la 05:01 UTC
Prognoză valabilă de la 21 ora 06 UTC la 22 ora 06 UTC
Vânt 10 kt de la Sud/Sud-est
Vizibilitate: 10 km
Nori împrăștiați la o înălțime de 25000 picior
De la 22 ora 0300 UTC
Vânt 5 kt de la Vest/Nord-vest
Vizibilitate: 10 km
Cer senin

TAF: MMSL 210501Z 2106/2206 30008KT P6SM BKN250FM211700 16010KT P6SM SCT250 FM220300 30005KT P6SM SKC

Observații și prognoze meteo pentru peste 4.000 de aeroporturi (rapoarte METAR și TAF).

Stațiile disponibile sunt reprezentate pe hartă prin puncte galbene și roșii.

Țineți indicatorul mouse-ului pe punctul dorit pentru a vedea denumirea stației.

Apoi, faceți clic pentru a vedea observațiile și prognozele meteorologice.

Pentru a schimba harta: Pentru mărire, faceți clic pe butoanele verzi cu cruce neagră; pentru micșorare, pe butonul verde cu o liniuță; pentru hărți învecinate, pe săgețile verzi.


METAR-TAF: